createdAt,value
2018-08-11T00:00:53.556Z,1.40
2018-08-11T00:01:53.524Z,1.10
2018-08-11T00:02:53.472Z,1.30
2018-08-11T00:03:53.445Z,1.30
2018-08-11T00:04:53.459Z,1.30
2018-08-11T00:05:53.424Z,1.30
2018-08-11T00:06:53.382Z,1.40
2018-08-11T00:07:53.394Z,1.40
2018-08-11T00:08:53.227Z,1.30
2018-08-11T00:09:53.186Z,1.40
2018-08-11T00:10:53.147Z,1.50
2018-08-11T00:11:53.109Z,1.40
2018-08-11T00:12:53.064Z,1.30
2018-08-11T00:13:53.028Z,1.70
2018-08-11T00:14:52.996Z,1.70
2018-08-11T00:15:52.950Z,1.50
2018-08-11T00:16:52.906Z,1.60
2018-08-11T00:17:52.861Z,1.60
2018-08-11T00:18:52.824Z,1.50
2018-08-11T00:19:52.784Z,1.40
2018-08-11T00:20:52.738Z,1.70
2018-08-11T00:21:52.703Z,1.60
2018-08-11T00:22:52.658Z,2.30
2018-08-11T00:23:52.629Z,1.80
2018-08-11T00:24:52.580Z,2.30
2018-08-11T00:25:52.535Z,2.70
2018-08-11T00:26:52.498Z,3.20
2018-08-11T00:27:52.454Z,4.10
2018-08-11T00:28:52.418Z,3.20
2018-08-11T00:29:52.380Z,3.40
2018-08-11T00:30:52.333Z,3.30
2018-08-11T00:31:52.293Z,3.00
2018-08-11T00:32:52.251Z,3.00
2018-08-11T00:33:52.215Z,3.40
2018-08-11T00:34:52.171Z,2.40
2018-08-11T00:35:52.128Z,2.70
2018-08-11T00:36:52.087Z,2.70
2018-08-11T00:37:52.050Z,2.20
2018-08-11T00:38:52.008Z,2.20
2018-08-11T00:39:51.968Z,2.10
2018-08-11T00:40:51.924Z,2.10
2018-08-11T00:41:51.884Z,2.60
2018-08-11T00:42:51.851Z,2.10
2018-08-11T00:43:51.822Z,1.80
2018-08-11T00:44:51.761Z,2.60
2018-08-11T00:45:51.722Z,1.70
2018-08-11T00:46:51.679Z,2.10
2018-08-11T00:47:51.641Z,1.90
2018-08-11T00:48:51.599Z,1.80
2018-08-11T00:49:51.558Z,1.70
2018-08-11T00:50:51.517Z,1.90
2018-08-11T00:51:51.480Z,2.30
2018-08-11T00:52:51.434Z,2.80
2018-08-11T00:53:51.393Z,2.80
2018-08-11T00:54:51.354Z,2.30
2018-08-11T00:55:51.313Z,2.30
2018-08-11T00:56:51.271Z,1.80
2018-08-11T00:57:51.232Z,2.00
2018-08-11T00:58:51.189Z,1.80
2018-08-11T00:59:51.147Z,1.60
2018-08-11T01:00:51.110Z,1.60
2018-08-11T01:01:51.065Z,1.50
2018-08-11T01:02:51.024Z,2.10
2018-08-11T01:03:51.003Z,1.50
2018-08-11T01:04:50.943Z,1.40
2018-08-11T01:05:50.904Z,1.60
2018-08-11T01:06:50.859Z,2.40
2018-08-11T01:07:50.818Z,2.20
2018-08-11T01:08:50.776Z,2.10
2018-08-11T01:09:50.737Z,1.70
2018-08-11T01:10:50.738Z,1.80
2018-08-11T01:11:50.651Z,2.90
2018-08-11T01:12:50.612Z,2.30
2018-08-11T01:13:50.569Z,2.20
2018-08-11T01:14:50.529Z,1.90
2018-08-11T01:15:50.486Z,1.90
2018-08-11T01:16:50.449Z,2.40
2018-08-11T01:17:50.407Z,2.40
2018-08-11T01:18:50.365Z,2.30
2018-08-11T01:19:50.323Z,2.50
2018-08-11T01:20:50.279Z,2.60
2018-08-11T01:21:50.239Z,2.00
2018-08-11T01:22:50.198Z,2.00
2018-08-11T01:23:50.153Z,2.20
2018-08-11T01:24:50.113Z,2.50
2018-08-11T01:25:50.073Z,2.00
2018-08-11T01:26:50.030Z,2.40
2018-08-11T01:27:49.989Z,2.70
2018-08-11T01:28:49.951Z,2.40
2018-08-11T01:29:49.907Z,2.60
2018-08-11T01:30:49.867Z,2.00
2018-08-11T01:31:49.821Z,2.30
2018-08-11T01:32:49.779Z,1.90
2018-08-11T01:33:49.743Z,2.00
2018-08-11T01:34:49.699Z,2.00
2018-08-11T01:35:49.652Z,2.00
2018-08-11T01:36:49.614Z,2.80
2018-08-11T01:37:49.568Z,2.10
2018-08-11T01:38:49.528Z,2.20
2018-08-11T01:39:49.484Z,2.00
2018-08-11T01:40:49.446Z,2.20
2018-08-11T01:41:49.403Z,2.20
2018-08-11T01:42:49.363Z,1.90
2018-08-11T01:43:49.319Z,2.00
2018-08-11T01:44:49.284Z,2.00
2018-08-11T01:45:49.244Z,2.00
2018-08-11T01:46:49.195Z,2.40
2018-08-11T01:47:49.153Z,2.20
2018-08-11T01:48:49.109Z,2.10
2018-08-11T01:49:49.066Z,2.30
2018-08-11T01:50:49.026Z,2.00
2018-08-11T01:51:48.981Z,2.00
2018-08-11T01:52:48.941Z,1.80
2018-08-11T01:53:48.899Z,2.10
2018-08-11T01:54:48.855Z,2.20
2018-08-11T01:55:48.815Z,2.10
2018-08-11T01:56:48.771Z,2.00
2018-08-11T01:57:48.729Z,2.20
2018-08-11T01:58:48.687Z,2.00
2018-08-11T01:59:48.645Z,2.20
2018-08-11T02:00:48.601Z,1.80
2018-08-11T02:01:48.560Z,2.50
2018-08-11T02:02:48.520Z,2.50
2018-08-11T02:03:48.476Z,2.70
2018-08-11T02:04:48.435Z,2.60
2018-08-11T02:05:48.395Z,2.50
2018-08-11T02:06:48.349Z,2.70
2018-08-11T02:07:48.308Z,2.70
2018-08-11T02:08:48.266Z,2.30
2018-08-11T02:09:48.223Z,2.40
2018-08-11T02:10:48.179Z,2.70
2018-08-11T02:11:48.140Z,2.80
2018-08-11T02:12:48.099Z,2.90
2018-08-11T02:13:48.054Z,2.70
2018-08-11T02:14:48.013Z,2.60
2018-08-11T02:15:47.969Z,2.60
2018-08-11T02:16:47.926Z,2.40
2018-08-11T02:17:47.887Z,2.70
2018-08-11T02:18:47.842Z,2.70
2018-08-11T02:19:47.801Z,3.20
2018-08-11T02:20:47.758Z,3.00
2018-08-11T02:21:47.714Z,3.00
2018-08-11T02:22:47.676Z,3.20
2018-08-11T02:23:47.634Z,3.20
2018-08-11T02:24:47.686Z,2.90
2018-08-11T02:25:47.551Z,2.60
2018-08-11T02:26:47.504Z,3.00
2018-08-11T02:27:47.459Z,2.70
2018-08-11T02:28:47.425Z,3.00
2018-08-11T02:29:47.374Z,3.30
2018-08-11T02:30:47.332Z,2.90
2018-08-11T02:31:47.294Z,3.10
2018-08-11T02:32:47.248Z,3.00
2018-08-11T02:33:47.206Z,2.90
2018-08-11T02:34:47.165Z,3.10
2018-08-11T02:35:47.120Z,2.90
2018-08-11T02:36:47.081Z,2.90
2018-08-11T02:37:47.040Z,2.90
2018-08-11T02:38:47.003Z,3.40
2018-08-11T02:39:46.955Z,3.40
2018-08-11T02:40:46.917Z,3.00
2018-08-11T02:41:46.865Z,3.30
2018-08-11T02:42:46.823Z,3.40
2018-08-11T02:43:46.780Z,3.50
2018-08-11T02:44:46.739Z,3.10
2018-08-11T02:45:46.698Z,3.50
2018-08-11T02:46:46.656Z,3.70
2018-08-11T02:47:46.619Z,3.80
2018-08-11T02:48:46.568Z,3.80
2018-08-11T02:49:46.529Z,3.40
2018-08-11T02:50:46.483Z,3.40
2018-08-11T02:51:46.441Z,3.80
2018-08-11T02:52:46.408Z,3.80
2018-08-11T02:53:46.357Z,3.90
2018-08-11T02:54:46.317Z,4.00
2018-08-11T02:55:46.277Z,3.90
2018-08-11T02:56:46.228Z,4.20
2018-08-11T02:57:46.188Z,3.80
2018-08-11T02:58:46.145Z,4.00
2018-08-11T02:59:46.108Z,4.00
2018-08-11T03:00:46.083Z,4.20
2018-08-11T03:01:46.019Z,4.20
2018-08-11T03:02:45.980Z,4.40
2018-08-11T03:03:45.939Z,4.70
2018-08-11T03:04:45.894Z,4.30
2018-08-11T03:05:45.850Z,4.90
2018-08-11T03:06:45.806Z,4.70
2018-08-11T03:07:45.764Z,5.20
2018-08-11T03:08:45.724Z,5.30
2018-08-11T03:09:45.685Z,5.10
2018-08-11T03:10:45.636Z,4.80
2018-08-11T03:11:45.595Z,5.50
2018-08-11T03:12:45.556Z,5.50
2018-08-11T03:13:45.507Z,5.10
2018-08-11T03:14:45.466Z,5.60
2018-08-11T03:15:45.424Z,5.40
2018-08-11T03:16:45.379Z,5.90
2018-08-11T03:17:45.338Z,6.10
2018-08-11T03:18:45.297Z,6.50
2018-08-11T03:19:45.252Z,6.10
2018-08-11T03:20:45.210Z,5.90
2018-08-11T03:21:45.171Z,6.30
2018-08-11T03:22:45.125Z,6.20
2018-08-11T03:23:45.083Z,5.70
2018-08-11T03:24:45.041Z,5.80
2018-08-11T03:25:45.000Z,5.90
2018-08-11T03:26:44.957Z,5.90
2018-08-11T03:27:44.913Z,5.80
2018-08-11T03:28:44.871Z,6.00
2018-08-11T03:29:44.827Z,5.50
2018-08-11T03:30:44.783Z,5.40
2018-08-11T03:31:44.743Z,5.70
2018-08-11T03:32:44.696Z,5.30
2018-08-11T03:33:44.657Z,5.60
2018-08-11T03:34:44.613Z,5.50
2018-08-11T03:35:44.568Z,5.10
2018-08-11T03:36:44.526Z,5.10
2018-08-11T03:37:44.484Z,4.70
2018-08-11T03:38:44.448Z,5.30
2018-08-11T03:39:44.402Z,5.30
2018-08-11T03:40:44.357Z,4.70
2018-08-11T03:41:44.322Z,4.70
2018-08-11T03:42:44.273Z,4.30
2018-08-11T03:43:44.228Z,4.60
2018-08-11T03:44:44.190Z,4.50
2018-08-11T03:45:44.144Z,4.30
2018-08-11T03:46:44.101Z,4.90
2018-08-11T03:47:44.058Z,4.50
2018-08-11T03:48:44.016Z,4.10
2018-08-11T03:49:43.973Z,4.00
2018-08-11T03:50:43.939Z,4.20
2018-08-11T03:51:43.888Z,3.70
2018-08-11T03:52:43.862Z,4.30
2018-08-11T03:53:43.805Z,4.20
2018-08-11T03:54:43.760Z,3.70
2018-08-11T03:55:43.719Z,3.80
2018-08-11T03:56:43.679Z,3.90
2018-08-11T03:57:43.633Z,3.40
2018-08-11T03:58:43.596Z,4.00
2018-08-11T03:59:43.546Z,3.60
2018-08-11T04:00:43.502Z,3.70
2018-08-11T04:01:43.462Z,3.80
2018-08-11T04:02:43.423Z,3.70
2018-08-11T04:03:43.374Z,3.80
2018-08-11T04:04:43.342Z,3.40
2018-08-11T04:05:43.295Z,3.70
2018-08-11T04:06:43.268Z,3.60
2018-08-11T04:07:43.203Z,3.60
2018-08-11T04:08:43.160Z,4.00
2018-08-11T04:09:43.119Z,4.00
2018-08-11T04:10:43.079Z,3.70
2018-08-11T04:11:43.034Z,3.70
2018-08-11T04:12:42.989Z,3.90
2018-08-11T04:13:42.954Z,3.90
2018-08-11T04:14:42.906Z,3.90
2018-08-11T04:15:42.864Z,4.20
2018-08-11T04:16:42.824Z,4.00
2018-08-11T04:17:42.778Z,4.10
2018-08-11T04:18:42.739Z,4.40
2018-08-11T04:19:42.697Z,4.40
2018-08-11T04:20:42.649Z,4.50
2018-08-11T04:21:42.609Z,4.30
2018-08-11T04:22:42.565Z,4.50
2018-08-11T04:23:42.519Z,4.50
2018-08-11T04:24:42.479Z,4.50
2018-08-11T04:25:42.441Z,4.80
2018-08-11T04:26:42.393Z,5.10
2018-08-11T04:27:42.350Z,5.30
2018-08-11T04:28:42.307Z,5.50
2018-08-11T04:29:42.268Z,5.40
2018-08-11T04:30:42.222Z,5.60
2018-08-11T04:31:42.178Z,5.60
2018-08-11T04:32:42.139Z,5.20
2018-08-11T04:33:42.095Z,5.10
2018-08-11T04:34:42.057Z,5.90
2018-08-11T04:35:42.059Z,5.70
2018-08-11T04:36:41.977Z,5.90
2018-08-11T04:37:41.928Z,6.40
2018-08-11T04:38:41.878Z,6.50
2018-08-11T04:39:41.836Z,6.50
2018-08-11T04:40:41.793Z,6.40
2018-08-11T04:41:41.752Z,6.20
2018-08-11T04:42:41.708Z,6.80
2018-08-11T04:43:41.667Z,6.30
2018-08-11T04:44:41.622Z,6.30
2018-08-11T04:45:41.583Z,6.60
2018-08-11T04:46:41.537Z,6.30
2018-08-11T04:47:41.498Z,6.80
2018-08-11T04:48:41.451Z,6.60
2018-08-11T04:49:41.414Z,6.80
2018-08-11T04:50:41.366Z,6.50
2018-08-11T04:51:41.331Z,6.30
2018-08-11T04:52:41.282Z,6.30
2018-08-11T04:53:41.237Z,6.60
2018-08-11T04:54:41.198Z,6.60
2018-08-11T04:55:41.154Z,6.60
2018-08-11T04:56:41.113Z,6.30
2018-08-11T04:57:41.067Z,6.30
2018-08-11T04:58:41.021Z,6.30
2018-08-11T04:59:40.981Z,6.30
2018-08-11T05:00:40.941Z,6.10
2018-08-11T05:01:40.894Z,5.80
2018-08-11T05:02:40.853Z,6.80
2018-08-11T05:03:40.812Z,5.80
2018-08-11T05:04:40.767Z,6.20
2018-08-11T05:05:40.722Z,5.70
2018-08-11T05:06:40.682Z,6.10
2018-08-11T05:07:40.640Z,6.20
2018-08-11T05:08:40.596Z,5.80
2018-08-11T05:09:40.553Z,5.70
2018-08-11T05:10:40.512Z,6.10
2018-08-11T05:11:40.470Z,5.90
2018-08-11T05:12:40.427Z,6.50
2018-08-11T05:13:40.384Z,6.10
2018-08-11T05:14:40.346Z,5.40
2018-08-11T05:15:40.296Z,6.20
2018-08-11T05:16:40.255Z,6.10
2018-08-11T05:17:40.213Z,6.30
2018-08-11T05:18:40.167Z,6.50
2018-08-11T05:19:40.124Z,6.40
2018-08-11T05:20:40.084Z,6.90
2018-08-11T05:21:40.041Z,6.80
2018-08-11T05:22:39.997Z,6.70
2018-08-11T05:23:39.953Z,6.50
2018-08-11T05:24:39.912Z,7.20
2018-08-11T05:25:39.869Z,7.30
2018-08-11T05:26:39.830Z,7.10
2018-08-11T05:27:39.782Z,7.20
2018-08-11T05:28:39.743Z,7.10
2018-08-11T05:29:39.697Z,7.50
2018-08-11T05:30:39.660Z,6.80
2018-08-11T05:31:39.613Z,8.30
2018-08-11T05:32:39.571Z,8.90
2018-08-11T05:33:39.531Z,9.50
2018-08-11T05:34:39.497Z,10.10
2018-08-11T05:35:39.444Z,10.10
2018-08-11T05:36:39.407Z,10.00
2018-08-11T05:37:39.356Z,10.00
2018-08-11T05:38:39.315Z,9.90
2018-08-11T05:39:39.271Z,10.60
2018-08-11T05:40:39.229Z,10.20
2018-08-11T05:41:39.222Z,10.40
2018-08-11T05:42:39.146Z,10.20
2018-08-11T05:43:39.100Z,10.60
2018-08-11T05:44:39.063Z,9.50
2018-08-11T05:45:39.017Z,9.70
2018-08-11T05:46:38.974Z,9.50
2018-08-11T05:47:38.933Z,9.30
2018-08-11T05:48:38.888Z,9.30
2018-08-11T05:49:38.848Z,9.40
2018-08-11T05:50:38.805Z,9.80
2018-08-11T05:51:38.760Z,9.90
2018-08-11T05:52:38.721Z,10.80
2018-08-11T05:53:38.677Z,10.80
2018-08-11T05:54:38.633Z,10.70
2018-08-11T05:55:38.593Z,9.60
2018-08-11T05:56:38.549Z,9.50
2018-08-11T05:57:38.508Z,9.20
2018-08-11T05:58:38.467Z,8.90
2018-08-11T05:59:38.428Z,9.70
2018-08-11T06:00:38.414Z,8.70
2018-08-11T06:01:38.452Z,9.30
2018-08-11T06:02:38.362Z,8.90
2018-08-11T06:03:38.374Z,9.20
2018-08-11T06:04:38.302Z,8.40
2018-08-11T06:05:38.167Z,8.60
2018-08-11T06:06:38.124Z,8.60
2018-08-11T06:07:38.082Z,8.50
2018-08-11T06:08:38.042Z,8.40
2018-08-11T06:09:37.998Z,8.50
2018-08-11T06:10:38.013Z,8.50
2018-08-11T06:11:37.915Z,8.00
2018-08-11T06:12:37.870Z,8.20
2018-08-11T06:13:37.834Z,7.80
2018-08-11T06:14:37.788Z,8.00
2018-08-11T06:15:37.742Z,8.40
2018-08-11T06:16:37.703Z,8.30
2018-08-11T06:17:37.659Z,7.80
2018-08-11T06:18:37.616Z,7.90
2018-08-11T06:19:37.573Z,8.20
2018-08-11T06:20:37.532Z,8.30
2018-08-11T06:21:37.491Z,8.20
2018-08-11T06:22:37.450Z,7.70
2018-08-11T06:23:37.405Z,7.90
2018-08-11T06:24:37.367Z,8.50
2018-08-11T06:25:37.328Z,8.20
2018-08-11T06:26:37.277Z,8.40
2018-08-11T06:27:37.237Z,8.60
2018-08-11T06:28:37.195Z,8.50
2018-08-11T06:29:37.155Z,8.20
2018-08-11T06:30:37.111Z,8.10
2018-08-11T06:31:37.308Z,8.20
2018-08-11T06:32:37.026Z,9.30
2018-08-11T06:33:36.983Z,8.10
2018-08-11T06:34:36.964Z,8.90
2018-08-11T06:35:36.907Z,8.70
2018-08-11T06:36:36.857Z,8.50
2018-08-11T06:37:36.813Z,8.00
2018-08-11T06:38:36.773Z,8.10
2018-08-11T06:39:36.727Z,7.90
2018-08-11T06:40:36.759Z,7.90
2018-08-11T06:41:36.645Z,8.20
2018-08-11T06:42:36.605Z,7.60
2018-08-11T06:43:36.564Z,8.50
2018-08-11T06:44:36.521Z,8.20
2018-08-11T06:45:36.477Z,8.20
2018-08-11T06:46:36.439Z,7.50
2018-08-11T06:47:36.393Z,7.50
2018-08-11T06:48:36.349Z,7.60
2018-08-11T06:49:36.313Z,7.30
2018-08-11T06:50:36.267Z,7.10
2018-08-11T06:51:36.225Z,7.60
2018-08-11T06:52:36.183Z,7.00
2018-08-11T06:53:36.146Z,5.80
2018-08-11T06:54:36.096Z,6.90
2018-08-11T06:55:36.075Z,6.50
2018-08-11T06:56:36.107Z,6.40
2018-08-11T06:57:35.971Z,6.70
2018-08-11T06:58:35.938Z,6.30
2018-08-11T06:59:35.885Z,6.70
2018-08-11T07:00:35.853Z,6.50
2018-08-11T07:01:35.804Z,6.50
2018-08-11T07:02:35.759Z,6.70
2018-08-11T07:03:35.717Z,6.30
2018-08-11T07:04:35.675Z,6.20
2018-08-11T07:05:35.634Z,6.20
2018-08-11T07:06:35.694Z,6.50
2018-08-11T07:07:35.549Z,6.80
2018-08-11T07:08:35.509Z,7.50
2018-08-11T07:09:35.469Z,7.10
2018-08-11T07:10:35.423Z,7.10
2018-08-11T07:11:35.383Z,7.90
2018-08-11T07:12:35.344Z,7.30
2018-08-11T07:13:35.301Z,7.40
2018-08-11T07:14:35.257Z,7.20
2018-08-11T07:15:35.214Z,6.80
2018-08-11T07:16:35.177Z,6.60
2018-08-11T07:17:35.133Z,6.20
2018-08-11T07:18:35.092Z,6.20
2018-08-11T07:19:35.048Z,6.50
2018-08-11T07:20:35.008Z,6.40
2018-08-11T07:21:34.967Z,7.10
2018-08-11T07:22:34.922Z,7.80
2018-08-11T07:23:34.883Z,7.10
2018-08-11T07:24:34.841Z,6.90
2018-08-11T07:25:34.797Z,6.00
2018-08-11T07:26:34.815Z,6.50
2018-08-11T07:27:34.713Z,5.70
2018-08-11T07:28:34.674Z,6.10
2018-08-11T07:29:34.630Z,5.90
2018-08-11T07:30:34.590Z,5.80
2018-08-11T07:31:34.550Z,6.10
2018-08-11T07:32:34.507Z,5.80
2018-08-11T07:33:34.466Z,6.20
2018-08-11T07:34:34.423Z,5.40
2018-08-11T07:35:34.381Z,5.80
2018-08-11T07:36:34.361Z,5.70
2018-08-11T07:37:34.298Z,5.30
2018-08-11T07:38:34.257Z,4.90
2018-08-11T07:39:34.216Z,4.90
2018-08-11T07:40:34.176Z,4.50
2018-08-11T07:41:34.132Z,4.80
2018-08-11T07:42:34.097Z,4.40
2018-08-11T07:43:34.052Z,4.00
2018-08-11T07:44:34.011Z,4.00
2018-08-11T07:45:33.966Z,3.90
2018-08-11T07:46:33.927Z,4.20
2018-08-11T07:47:33.938Z,3.40
2018-08-11T07:48:33.892Z,3.40
2018-08-11T07:49:33.805Z,3.30
2018-08-11T07:50:33.763Z,3.40
2018-08-11T07:51:33.718Z,3.30
2018-08-11T07:52:33.677Z,3.40
2018-08-11T07:53:33.635Z,3.20
2018-08-11T07:54:33.595Z,3.20
2018-08-11T07:55:33.552Z,3.00
2018-08-11T07:56:33.510Z,3.00
2018-08-11T07:57:33.469Z,3.10
2018-08-11T07:58:33.433Z,3.30
2018-08-11T07:59:33.390Z,3.60
2018-08-11T08:00:33.347Z,2.80
2018-08-11T08:01:33.308Z,3.10
2018-08-11T08:02:33.264Z,3.30
2018-08-11T08:03:33.223Z,2.70
2018-08-11T08:04:33.180Z,2.80
2018-08-11T08:05:33.141Z,2.80
2018-08-11T08:06:33.102Z,2.70
2018-08-11T08:07:33.068Z,2.90
2018-08-11T08:08:33.021Z,2.80
2018-08-11T08:09:32.976Z,2.80
2018-08-11T08:10:32.938Z,3.10
2018-08-11T08:11:32.896Z,3.10
2018-08-11T08:12:32.862Z,2.60
2018-08-11T08:13:32.818Z,2.80
2018-08-11T08:14:32.778Z,3.10
2018-08-11T08:15:32.732Z,2.60
2018-08-11T08:16:32.694Z,2.50
2018-08-11T08:17:32.652Z,2.70
2018-08-11T08:18:32.609Z,2.70
2018-08-11T08:19:32.576Z,2.40
2018-08-11T08:20:32.531Z,2.60
2018-08-11T08:21:32.489Z,3.00
2018-08-11T08:22:32.453Z,2.40
2018-08-11T08:23:32.407Z,2.40
2018-08-11T08:24:32.367Z,2.50
2018-08-11T08:25:32.328Z,2.30
2018-08-11T08:26:32.433Z,2.50
2018-08-11T08:27:32.243Z,2.50
2018-08-11T08:28:32.208Z,2.50
2018-08-11T08:29:32.166Z,2.40
2018-08-11T08:30:32.125Z,2.50
2018-08-11T08:31:32.083Z,2.70
2018-08-11T08:32:32.044Z,2.50
2018-08-11T08:33:32.007Z,2.40
2018-08-11T08:34:31.966Z,2.50
2018-08-11T08:35:31.923Z,2.60
2018-08-11T08:36:31.881Z,2.70
2018-08-11T08:37:31.842Z,2.60
2018-08-11T08:38:31.805Z,2.40
2018-08-11T08:39:31.760Z,2.40
2018-08-11T08:40:31.726Z,2.70
2018-08-11T08:41:31.681Z,2.10
2018-08-11T08:42:31.648Z,2.80
2018-08-11T08:43:31.606Z,2.30
2018-08-11T08:44:31.560Z,2.80
2018-08-11T08:45:31.522Z,2.50
2018-08-11T08:46:31.484Z,2.30
2018-08-11T08:47:31.582Z,2.20
2018-08-11T08:48:31.401Z,2.60
2018-08-11T08:49:31.359Z,2.30
2018-08-11T08:50:31.322Z,2.90
2018-08-11T08:51:31.279Z,2.30
2018-08-11T08:52:31.242Z,1.90
2018-08-11T08:53:31.203Z,2.00
2018-08-11T08:54:31.162Z,2.50
2018-08-11T08:55:31.117Z,2.00
2018-08-11T08:56:31.079Z,2.20
2018-08-11T08:57:31.043Z,2.20
2018-08-11T08:58:31.006Z,2.10
2018-08-11T08:59:30.977Z,2.10
2018-08-11T09:00:30.923Z,1.90
2018-08-11T09:01:30.886Z,2.40
2018-08-11T09:02:30.844Z,2.40
2018-08-11T09:03:30.798Z,2.30
2018-08-11T09:04:30.765Z,2.00
2018-08-11T09:05:30.722Z,1.90
2018-08-11T09:06:30.686Z,1.90
2018-08-11T09:07:30.642Z,2.00
2018-08-11T09:08:30.606Z,2.10
2018-08-11T09:09:30.564Z,2.10
2018-08-11T09:10:30.525Z,2.20
2018-08-11T09:11:30.483Z,1.90
2018-08-11T09:12:30.452Z,2.20
2018-08-11T09:13:30.405Z,2.30
2018-08-11T09:14:30.366Z,1.90
2018-08-11T09:15:30.327Z,2.30
2018-08-11T09:16:30.284Z,2.10
2018-08-11T09:17:30.245Z,2.00
2018-08-11T09:18:30.211Z,2.10
2018-08-11T09:19:30.233Z,2.00
2018-08-11T09:20:30.126Z,1.90
2018-08-11T09:21:30.106Z,2.10
2018-08-11T09:22:30.075Z,2.00
2018-08-11T09:23:30.087Z,1.80
2018-08-11T09:24:29.966Z,1.80
2018-08-11T09:25:29.931Z,1.80
2018-08-11T09:26:29.888Z,1.80
2018-08-11T09:27:29.846Z,1.70
2018-08-11T09:28:29.816Z,1.60
2018-08-11T09:29:29.769Z,1.60
2018-08-11T09:30:29.733Z,1.90
2018-08-11T09:31:29.691Z,1.70
2018-08-11T09:32:29.653Z,2.20
2018-08-11T09:33:29.612Z,1.90
2018-08-11T09:34:29.573Z,1.60
2018-08-11T09:35:29.530Z,1.80
2018-08-11T09:36:29.494Z,2.10
2018-08-11T09:37:29.452Z,1.80
2018-08-11T09:38:29.426Z,2.00
2018-08-11T09:39:29.378Z,1.90
2018-08-11T09:40:29.336Z,1.80
2018-08-11T09:41:29.296Z,1.90
2018-08-11T09:42:29.258Z,1.80
2018-08-11T09:43:29.220Z,2.10
2018-08-11T09:44:29.183Z,1.90
2018-08-11T09:45:29.135Z,1.90
2018-08-11T09:46:29.103Z,1.80
2018-08-11T09:47:29.060Z,2.00
2018-08-11T09:48:29.018Z,1.70
2018-08-11T09:49:28.978Z,1.70
2018-08-11T09:50:28.939Z,1.80
2018-08-11T09:51:28.900Z,1.40
2018-08-11T09:52:28.859Z,1.70
2018-08-11T09:53:28.824Z,1.70
2018-08-11T09:54:28.783Z,1.80
2018-08-11T09:55:28.746Z,1.80
2018-08-11T09:56:28.711Z,1.60
2018-08-11T09:57:28.665Z,1.90
2018-08-11T09:58:28.628Z,1.60
2018-08-11T09:59:28.585Z,1.70
2018-08-11T10:00:28.549Z,2.00
2018-08-11T10:01:28.506Z,1.80
2018-08-11T10:02:28.471Z,1.60
2018-08-11T10:03:28.428Z,1.80
2018-08-11T10:04:28.391Z,1.90
2018-08-11T10:05:28.350Z,1.80
2018-08-11T10:06:28.311Z,1.80
2018-08-11T10:07:28.270Z,1.70
2018-08-11T10:08:28.237Z,2.00
2018-08-11T10:09:28.191Z,1.80
2018-08-11T10:10:28.220Z,1.90
2018-08-11T10:11:28.116Z,2.00
2018-08-11T10:12:28.076Z,1.70
2018-08-11T10:13:28.039Z,1.80
2018-08-11T10:14:27.999Z,2.20
2018-08-11T10:15:27.958Z,1.90
2018-08-11T10:16:27.925Z,2.00
2018-08-11T10:17:27.886Z,2.10
2018-08-11T10:18:27.868Z,2.10
2018-08-11T10:19:27.801Z,2.00
2018-08-11T10:20:27.765Z,1.80
2018-08-11T10:21:27.728Z,1.90
2018-08-11T10:22:27.687Z,1.90
2018-08-11T10:23:27.644Z,2.00
2018-08-11T10:24:27.608Z,2.00
2018-08-11T10:25:27.567Z,1.80
2018-08-11T10:26:27.527Z,1.90
2018-08-11T10:27:27.493Z,2.10
2018-08-11T10:28:27.447Z,2.40
2018-08-11T10:29:27.409Z,2.00
2018-08-11T10:30:27.369Z,2.10
2018-08-11T10:31:27.328Z,2.00
2018-08-11T10:32:27.293Z,1.70
2018-08-11T10:33:27.259Z,1.80
2018-08-11T10:34:27.211Z,1.80
2018-08-11T10:35:27.171Z,1.70
2018-08-11T10:36:27.140Z,1.90
2018-08-11T10:37:27.093Z,1.60
2018-08-11T10:38:27.060Z,1.90
2018-08-11T10:39:27.019Z,1.70
2018-08-11T10:40:26.976Z,2.00
2018-08-11T10:41:26.945Z,2.10
2018-08-11T10:42:26.901Z,2.30
2018-08-11T10:43:26.869Z,2.00
2018-08-11T10:44:26.822Z,1.90
2018-08-11T10:45:26.780Z,1.90
2018-08-11T10:46:26.748Z,1.80
2018-08-11T10:47:26.705Z,1.80
2018-08-11T10:48:26.664Z,2.20
2018-08-11T10:49:26.629Z,2.20
2018-08-11T10:50:26.589Z,2.20
2018-08-11T10:51:26.552Z,1.80
2018-08-11T10:52:26.508Z,2.00
2018-08-11T10:53:26.469Z,2.10
2018-08-11T10:54:26.434Z,1.90
2018-08-11T10:55:26.390Z,2.00
2018-08-11T10:56:26.357Z,2.10
2018-08-11T10:57:26.314Z,2.10
2018-08-11T10:58:26.280Z,1.90
2018-08-11T10:59:26.235Z,2.00
2018-08-11T11:00:26.197Z,2.00
2018-08-11T11:01:26.261Z,1.80
2018-08-11T11:02:26.126Z,1.40
2018-08-11T11:03:26.081Z,1.70
2018-08-11T11:04:26.049Z,1.70
2018-08-11T11:05:26.006Z,1.80
2018-08-11T11:06:25.964Z,1.90
2018-08-11T11:07:25.925Z,1.80
2018-08-11T11:08:25.942Z,2.20
2018-08-11T11:09:25.851Z,1.80
2018-08-11T11:10:25.812Z,1.70
2018-08-11T11:11:25.776Z,1.60
2018-08-11T11:12:25.731Z,1.30
2018-08-11T11:13:25.697Z,1.60
2018-08-11T11:14:25.753Z,1.90
2018-08-11T11:15:25.616Z,1.70
2018-08-11T11:16:25.580Z,1.90
2018-08-11T11:17:25.545Z,2.00
2018-08-11T11:18:25.504Z,1.80
2018-08-11T11:19:25.467Z,1.90
2018-08-11T11:20:25.427Z,1.70
2018-08-11T11:21:25.387Z,1.60
2018-08-11T11:22:25.354Z,1.60
2018-08-11T11:23:25.311Z,1.80
2018-08-11T11:24:25.276Z,1.60
2018-08-11T11:25:25.243Z,1.70
2018-08-11T11:26:25.206Z,2.00
2018-08-11T11:27:25.167Z,1.50
2018-08-11T11:28:25.124Z,1.80
2018-08-11T11:29:25.095Z,1.60
2018-08-11T11:30:25.050Z,1.60
2018-08-11T11:31:25.046Z,1.70
2018-08-11T11:32:24.978Z,1.70
2018-08-11T11:33:24.933Z,1.80
2018-08-11T11:34:24.890Z,1.70
2018-08-11T11:35:24.860Z,1.60
2018-08-11T11:36:24.817Z,1.50
2018-08-11T11:37:24.958Z,1.40
2018-08-11T11:38:24.743Z,1.60
2018-08-11T11:39:24.703Z,1.50
2018-08-11T11:40:24.669Z,1.40
2018-08-11T11:41:24.628Z,1.30
2018-08-11T11:42:24.589Z,1.20
2018-08-11T11:43:24.667Z,1.20
2018-08-11T11:44:24.512Z,1.10
2018-08-11T11:45:24.474Z,1.40
2018-08-11T11:46:24.436Z,1.30
2018-08-11T11:47:24.400Z,1.50
2018-08-11T11:48:24.366Z,1.40
2018-08-11T11:49:24.327Z,1.30
2018-08-11T11:50:24.287Z,1.30
2018-08-11T11:51:24.253Z,1.60
2018-08-11T11:52:24.213Z,1.40
2018-08-11T11:53:24.176Z,1.50
2018-08-11T11:54:24.141Z,1.20
2018-08-11T11:55:24.098Z,1.50
2018-08-11T11:56:24.068Z,1.40
2018-08-11T11:57:24.023Z,1.30
2018-08-11T11:58:23.999Z,1.30
2018-08-11T11:59:23.951Z,1.20
2018-08-11T12:00:23.913Z,1.10
2018-08-11T12:01:23.880Z,1.00
2018-08-11T12:02:23.839Z,1.00
2018-08-11T12:03:23.798Z,1.50
2018-08-11T12:04:23.762Z,1.00
2018-08-11T12:05:23.724Z,1.10
2018-08-11T12:06:23.689Z,0.90
2018-08-11T12:07:23.650Z,1.20
2018-08-11T12:08:23.616Z,1.00
2018-08-11T12:09:23.575Z,1.30
2018-08-11T12:10:23.550Z,1.10
2018-08-11T12:11:23.500Z,1.40
2018-08-11T12:12:23.462Z,1.70
2018-08-11T12:13:23.425Z,1.30
2018-08-11T12:14:23.396Z,1.00
2018-08-11T12:15:23.357Z,1.30
2018-08-11T12:16:23.318Z,1.50
2018-08-11T12:17:23.283Z,1.40
2018-08-11T12:18:23.248Z,1.40
2018-08-11T12:19:23.258Z,1.40
2018-08-11T12:20:23.172Z,1.10
2018-08-11T12:21:23.143Z,1.40
2018-08-11T12:22:23.096Z,1.50
2018-08-11T12:23:23.063Z,1.50
2018-08-11T12:24:23.028Z,1.20
2018-08-11T12:25:22.990Z,1.30
2018-08-11T12:26:22.956Z,1.30
2018-08-11T12:27:22.917Z,1.50
2018-08-11T12:28:22.883Z,1.30
2018-08-11T12:29:22.847Z,1.30
2018-08-11T12:30:22.806Z,1.70
2018-08-11T12:31:22.776Z,1.40
2018-08-11T12:32:22.735Z,1.50
2018-08-11T12:33:22.701Z,1.50
2018-08-11T12:34:22.665Z,1.40
2018-08-11T12:35:22.631Z,1.30
2018-08-11T12:36:22.594Z,1.10
2018-08-11T12:37:22.568Z,1.50
2018-08-11T12:38:22.524Z,1.30
2018-08-11T12:39:22.487Z,1.40
2018-08-11T12:40:22.468Z,1.30
2018-08-11T12:41:22.421Z,1.20
2018-08-11T12:42:22.381Z,1.20
2018-08-11T12:43:22.345Z,1.40
2018-08-11T12:44:22.313Z,1.40
2018-08-11T12:45:22.277Z,1.70
2018-08-11T12:46:22.244Z,1.30
2018-08-11T12:47:22.217Z,1.40
2018-08-11T12:48:22.176Z,1.40
2018-08-11T12:49:22.143Z,1.50
2018-08-11T12:50:22.105Z,1.60
2018-08-11T12:51:22.071Z,1.70
2018-08-11T12:52:22.044Z,1.20
2018-08-11T12:53:22.028Z,1.30
2018-08-11T12:54:21.971Z,1.40
2018-08-11T12:55:21.935Z,1.40
2018-08-11T12:56:21.905Z,1.50
2018-08-11T12:57:21.869Z,1.50
2018-08-11T12:58:21.834Z,1.80
2018-08-11T12:59:21.809Z,1.90
2018-08-11T13:00:21.776Z,1.70
2018-08-11T13:01:21.741Z,2.00
2018-08-11T13:02:21.710Z,1.90
2018-08-11T13:03:21.670Z,1.70
2018-08-11T13:04:21.642Z,1.80
2018-08-11T13:05:21.613Z,1.90
2018-08-11T13:06:21.575Z,1.60
2018-08-11T13:07:21.537Z,1.80
2018-08-11T13:08:21.501Z,1.70
2018-08-11T13:09:21.478Z,1.90
2018-08-11T13:10:21.438Z,1.70
2018-08-11T13:11:21.403Z,1.60
2018-08-11T13:12:21.372Z,1.80
2018-08-11T13:13:21.342Z,1.70
2018-08-11T13:14:21.308Z,1.70
2018-08-11T13:15:21.277Z,1.60
2018-08-11T13:16:21.243Z,1.80
2018-08-11T13:17:21.208Z,1.60
2018-08-11T13:18:21.178Z,1.90